createdAt,value
2022-10-23T00:01:59.304Z,15.50
2022-10-23T00:04:51.787Z,15.50
2022-10-23T00:07:41.090Z,15.50
2022-10-23T00:10:30.473Z,15.50
2022-10-23T00:13:21.160Z,15.50
2022-10-23T00:16:11.225Z,15.50
2022-10-23T00:19:00.608Z,15.50
2022-10-23T00:21:50.199Z,15.50
2022-10-23T00:24:39.478Z,15.50
2022-10-23T00:27:29.083Z,15.40
2022-10-23T00:30:20.036Z,15.40
2022-10-23T00:33:10.282Z,15.40
2022-10-23T00:35:59.681Z,15.40
2022-10-23T00:38:49.655Z,15.30
2022-10-23T00:41:38.988Z,15.30
2022-10-23T00:45:16.899Z,15.30
2022-10-23T00:48:07.785Z,15.30
2022-10-23T00:50:57.874Z,15.20
2022-10-23T00:54:01.065Z,15.20
2022-10-23T00:57:04.265Z,15.20
2022-10-23T00:59:53.695Z,15.10
2022-10-23T01:02:43.348Z,15.10
2022-10-23T01:05:43.844Z,15.10
2022-10-23T01:08:40.189Z,15.10
2022-10-23T01:11:39.757Z,15.10
2022-10-23T01:14:34.333Z,15.10
2022-10-23T01:17:32.121Z,15.00
2022-10-23T01:20:42.363Z,15.00
2022-10-23T01:24:11.545Z,15.00
2022-10-23T01:27:22.634Z,15.00
2022-10-23T01:30:16.286Z,15.00
2022-10-23T01:33:11.428Z,15.00
2022-10-23T01:36:12.776Z,15.00
2022-10-23T01:39:08.935Z,15.00
2022-10-23T01:42:06.168Z,15.00
2022-10-23T01:45:03.241Z,15.00
2022-10-23T01:48:03.102Z,15.00
2022-10-23T01:50:54.073Z,15.00
2022-10-23T01:53:46.614Z,15.00
2022-10-23T01:56:42.573Z,15.00
2022-10-23T01:59:36.873Z,15.00
2022-10-23T02:02:29.915Z,15.00
2022-10-23T02:05:23.692Z,15.00
2022-10-23T02:08:13.896Z,15.00
2022-10-23T02:11:09.815Z,15.00
2022-10-23T02:14:04.655Z,15.00
2022-10-23T02:16:56.379Z,15.00
2022-10-23T02:19:53.850Z,15.00
2022-10-23T02:22:57.257Z,15.00
2022-10-23T02:25:52.912Z,15.00
2022-10-23T02:28:49.675Z,15.00
2022-10-23T02:31:39.388Z,15.00
2022-10-23T02:34:28.865Z,15.00
2022-10-23T02:37:19.606Z,15.00
2022-10-23T02:40:11.949Z,15.00
2022-10-23T02:43:15.596Z,15.00
2022-10-23T02:46:18.411Z,15.00
2022-10-23T02:49:14.856Z,15.00
2022-10-23T02:52:11.849Z,15.00
2022-10-23T02:55:25.028Z,15.00
2022-10-23T02:58:22.613Z,15.00
2022-10-23T03:01:19.129Z,15.00
2022-10-23T03:04:11.382Z,15.00
2022-10-23T03:07:01.287Z,14.90
2022-10-23T03:09:51.016Z,14.90
2022-10-23T03:12:41.946Z,14.80
2022-10-23T03:15:31.527Z,14.80
2022-10-23T03:18:20.863Z,14.80
2022-10-23T03:21:13.986Z,14.80
2022-10-23T03:24:03.324Z,14.70
2022-10-23T03:27:00.449Z,14.70
2022-10-23T03:29:55.681Z,14.60
2022-10-23T03:32:45.395Z,14.60
2022-10-23T03:35:35.035Z,14.60
2022-10-23T03:38:24.525Z,14.60
2022-10-23T03:41:13.995Z,14.60
2022-10-23T03:46:58.980Z,14.60
2022-10-23T03:49:49.310Z,14.60
2022-10-23T03:52:38.683Z,14.60
2022-10-23T03:55:28.360Z,14.60
2022-10-23T03:58:17.706Z,14.60
2022-10-23T04:01:08.060Z,14.60
2022-10-23T04:04:00.223Z,14.60
2022-10-23T04:06:49.577Z,14.60
2022-10-23T04:09:39.534Z,14.60
2022-10-23T04:12:28.910Z,14.60
2022-10-23T04:15:18.519Z,14.60
2022-10-23T04:18:08.950Z,14.70
2022-10-23T04:20:59.610Z,14.70
2022-10-23T04:23:49.035Z,14.70
2022-10-23T04:26:40.453Z,14.70
2022-10-23T04:29:33.216Z,14.70
2022-10-23T04:32:22.737Z,14.70
2022-10-23T04:35:12.070Z,14.70
2022-10-23T04:38:02.797Z,14.70
2022-10-23T04:40:52.220Z,14.70
2022-10-23T04:43:45.050Z,14.70
2022-10-23T04:46:36.555Z,14.60
2022-10-23T04:49:27.108Z,14.60
2022-10-23T04:52:33.910Z,14.60
2022-10-23T04:55:30.627Z,14.60
2022-10-23T04:58:35.608Z,14.60
2022-10-23T05:01:25.101Z,14.60
2022-10-23T05:04:14.772Z,14.60
2022-10-23T05:07:24.407Z,14.60
2022-10-23T05:10:35.462Z,14.60
2022-10-23T05:13:31.758Z,14.60
2022-10-23T05:16:34.092Z,14.60
2022-10-23T05:19:29.143Z,14.60
2022-10-23T05:22:19.651Z,14.60
2022-10-23T05:25:13.998Z,14.50
2022-10-23T05:28:10.095Z,14.60
2022-10-23T05:31:01.164Z,14.50
2022-10-23T05:33:52.290Z,14.50
2022-10-23T05:36:43.409Z,14.50
2022-10-23T05:39:33.934Z,14.40
2022-10-23T05:42:24.453Z,14.40
2022-10-23T05:45:17.436Z,14.40
2022-10-23T05:48:40.542Z,14.40
2022-10-23T05:51:48.044Z,14.30
2022-10-23T05:54:46.027Z,14.30
2022-10-23T05:57:45.371Z,14.30
2022-10-23T06:00:38.813Z,14.20
2022-10-23T06:03:48.040Z,14.20
2022-10-23T06:06:37.623Z,14.20
2022-10-23T06:09:27.069Z,14.20
2022-10-23T06:12:20.092Z,14.20
2022-10-23T06:15:12.063Z,14.30
2022-10-23T06:18:19.390Z,14.30
2022-10-23T06:21:18.439Z,14.40
2022-10-23T06:24:10.474Z,14.60
2022-10-23T06:27:05.279Z,14.80
2022-10-23T06:30:14.012Z,14.90
2022-10-23T06:33:05.925Z,15.10
2022-10-23T06:35:58.889Z,15.30
2022-10-23T06:38:49.410Z,15.40
2022-10-23T06:41:41.991Z,15.50
2022-10-23T06:44:31.598Z,15.60
2022-10-23T06:47:30.626Z,15.70
2022-10-23T06:50:38.780Z,15.70
2022-10-23T06:53:35.790Z,15.90
2022-10-23T06:56:32.366Z,16.00
2022-10-23T06:59:22.823Z,16.20
2022-10-23T07:02:14.597Z,16.30
2022-10-23T07:05:04.977Z,16.40
2022-10-23T07:07:56.092Z,16.60
2022-10-23T07:10:51.546Z,16.80
2022-10-23T07:13:44.246Z,17.00
2022-10-23T07:16:39.230Z,17.20
2022-10-23T07:19:29.013Z,17.30
2022-10-23T07:22:20.000Z,17.50
2022-10-23T07:25:13.378Z,17.60
2022-10-23T07:28:06.030Z,17.90
2022-10-23T07:30:59.266Z,18.10
2022-10-23T07:33:57.960Z,18.40
2022-10-23T07:36:47.498Z,18.70
2022-10-23T07:39:36.975Z,19.20
2022-10-23T07:42:26.502Z,19.70
2022-10-23T07:45:17.573Z,20.10
2022-10-23T07:48:08.757Z,20.40
2022-10-23T07:51:18.386Z,20.70
2022-10-23T07:54:13.633Z,21.00
2022-10-23T07:57:25.905Z,21.30
2022-10-23T08:00:26.545Z,21.80
2022-10-23T08:03:25.766Z,22.30
2022-10-23T08:06:15.486Z,22.70
2022-10-23T08:09:06.785Z,23.20
2022-10-23T08:11:59.219Z,23.70
2022-10-23T08:14:50.088Z,24.30
2022-10-23T08:17:41.435Z,24.90
2022-10-23T08:20:40.855Z,25.50
2022-10-23T08:23:31.890Z,26.00
2022-10-23T08:26:21.480Z,26.50
2022-10-23T08:29:10.907Z,26.90
2022-10-23T08:32:00.555Z,27.30
2022-10-23T08:35:00.226Z,27.60
2022-10-23T08:37:53.060Z,28.00
2022-10-23T08:40:46.935Z,28.30
2022-10-23T08:44:02.710Z,28.60
2022-10-23T08:47:08.157Z,28.90
2022-10-23T08:50:17.060Z,29.20
2022-10-23T08:53:17.364Z,29.30
2022-10-23T08:56:14.369Z,29.30
2022-10-23T08:59:12.834Z,29.30
2022-10-23T09:02:07.060Z,29.20
2022-10-23T09:04:58.870Z,29.10
2022-10-23T09:08:12.795Z,29.00
2022-10-23T09:11:09.418Z,29.00
2022-10-23T09:14:46.026Z,28.90
2022-10-23T09:17:40.062Z,28.80
2022-10-23T09:20:34.376Z,28.70
2022-10-23T09:23:26.120Z,28.60
2022-10-23T09:26:18.870Z,28.70
2022-10-23T09:29:22.987Z,28.80
2022-10-23T09:32:12.327Z,29.20
2022-10-23T09:35:01.684Z,29.40
2022-10-23T09:37:53.305Z,29.60
2022-10-23T09:40:44.945Z,29.70
2022-10-23T09:43:34.980Z,29.80
2022-10-23T09:46:26.678Z,29.80
2022-10-23T09:49:23.148Z,29.70
2022-10-23T09:52:27.164Z,29.60
2022-10-23T09:55:23.259Z,29.40
2022-10-23T09:58:23.327Z,29.30
2022-10-23T10:01:25.193Z,29.10
2022-10-23T10:04:18.004Z,28.90
2022-10-23T10:07:20.118Z,28.80
2022-10-23T10:10:16.980Z,28.60
2022-10-23T10:13:19.415Z,28.40
2022-10-23T10:16:18.110Z,28.20
2022-10-23T10:19:20.331Z,28.10
2022-10-23T10:22:22.838Z,27.90
2022-10-23T10:25:23.145Z,27.70
2022-10-23T10:28:29.973Z,27.50
2022-10-23T10:31:31.387Z,27.30
2022-10-23T10:34:31.182Z,27.10
2022-10-23T10:37:33.100Z,26.90
2022-10-23T10:40:29.484Z,26.80
2022-10-23T10:43:33.707Z,26.70
2022-10-23T10:46:33.113Z,26.70
2022-10-23T10:49:31.349Z,26.70
2022-10-23T10:52:49.274Z,26.80
2022-10-23T10:55:42.897Z,27.00
2022-10-23T10:58:41.055Z,27.10
2022-10-23T11:01:38.254Z,27.30
2022-10-23T11:04:38.142Z,27.50
2022-10-23T11:07:35.711Z,27.80
2022-10-23T11:10:25.086Z,28.10
2022-10-23T11:13:28.250Z,28.30
2022-10-23T11:16:23.737Z,28.40
2022-10-23T11:19:23.210Z,28.40
2022-10-23T11:22:22.238Z,28.20
2022-10-23T11:25:33.291Z,28.00
2022-10-23T11:28:42.559Z,27.80
2022-10-23T11:31:40.627Z,27.40
2022-10-23T11:35:12.103Z,27.00
2022-10-23T11:38:10.688Z,26.70
2022-10-23T11:41:03.549Z,26.30
2022-10-23T11:43:57.031Z,26.00
2022-10-23T11:46:47.501Z,25.60
2022-10-23T11:49:38.375Z,25.40
2022-10-23T11:52:27.822Z,25.20
2022-10-23T11:55:21.700Z,24.90
2022-10-23T11:58:22.376Z,24.80
2022-10-23T12:01:28.467Z,24.60
2022-10-23T12:04:26.052Z,24.50
2022-10-23T12:07:24.255Z,24.30
2022-10-23T12:10:26.633Z,24.20
2022-10-23T12:13:33.257Z,24.00
2022-10-23T12:16:22.932Z,24.00
2022-10-23T12:19:23.022Z,23.90
2022-10-23T12:22:13.088Z,23.90
2022-10-23T12:25:13.061Z,23.90
2022-10-23T12:28:13.899Z,23.90
2022-10-23T12:31:24.673Z,23.90
2022-10-23T12:34:30.010Z,23.90
2022-10-23T12:37:56.074Z,23.90
2022-10-23T12:40:52.488Z,23.80
2022-10-23T12:43:44.081Z,23.70
2022-10-23T12:46:37.194Z,23.70
2022-10-23T12:49:31.594Z,23.60
2022-10-23T12:52:24.579Z,23.60
2022-10-23T12:55:15.801Z,23.50
2022-10-23T12:58:06.591Z,23.50
2022-10-23T13:00:58.801Z,23.40
2022-10-23T13:03:48.904Z,23.40
2022-10-23T13:06:39.551Z,23.30
2022-10-23T13:09:33.218Z,23.20
2022-10-23T13:12:39.853Z,23.20
2022-10-23T13:15:39.303Z,23.10
2022-10-23T13:18:28.738Z,23.00
2022-10-23T13:21:22.162Z,22.90
2022-10-23T13:24:21.694Z,22.90
2022-10-23T13:27:27.907Z,22.70
2022-10-23T13:30:33.994Z,22.60
2022-10-23T13:33:25.255Z,22.60
2022-10-23T13:36:27.439Z,22.50
2022-10-23T13:39:17.738Z,22.40
2022-10-23T13:42:15.489Z,22.40
2022-10-23T13:45:05.342Z,22.30
2022-10-23T13:47:56.131Z,22.30
2022-10-23T13:50:45.484Z,22.20
2022-10-23T13:53:34.811Z,22.20
2022-10-23T13:56:26.437Z,22.10
2022-10-23T13:59:16.530Z,22.10
2022-10-23T14:02:17.734Z,22.00
2022-10-23T14:05:09.081Z,22.00
2022-10-23T14:07:58.473Z,21.90
2022-10-23T14:10:48.083Z,21.90
2022-10-23T14:13:37.436Z,21.80
2022-10-23T14:16:27.055Z,21.80
2022-10-23T14:19:16.483Z,21.70
2022-10-23T14:22:07.275Z,21.70
2022-10-23T14:24:56.642Z,21.60
2022-10-23T14:27:46.130Z,21.60
2022-10-23T14:30:37.858Z,21.50
2022-10-23T14:33:27.284Z,21.40
2022-10-23T14:36:16.655Z,21.30
2022-10-23T14:39:07.562Z,21.20
2022-10-23T14:41:56.899Z,21.20
2022-10-23T14:44:46.265Z,21.10
2022-10-23T14:47:35.718Z,21.00
2022-10-23T14:50:25.245Z,20.90
2022-10-23T14:53:14.888Z,20.90
2022-10-23T14:56:06.264Z,20.80
2022-10-23T14:59:02.590Z,20.80
2022-10-23T15:04:46.380Z,20.60
2022-10-23T15:07:35.789Z,20.60
2022-10-23T15:10:25.214Z,20.50
2022-10-23T15:13:16.039Z,20.50
2022-10-23T15:16:08.204Z,20.40
2022-10-23T15:18:57.587Z,20.40
2022-10-23T15:21:47.881Z,20.30
2022-10-23T15:24:37.485Z,20.30
2022-10-23T15:27:26.805Z,20.20
2022-10-23T15:30:18.727Z,20.10
2022-10-23T15:33:08.056Z,20.10
2022-10-23T15:35:57.736Z,20.10
2022-10-23T15:38:47.005Z,20.00
2022-10-23T15:41:39.204Z,20.00
2022-10-23T15:44:31.093Z,19.90
2022-10-23T15:47:21.869Z,19.90
2022-10-23T15:50:11.467Z,19.80
2022-10-23T15:53:01.137Z,19.80
2022-10-23T15:55:50.514Z,19.80
2022-10-23T15:58:40.178Z,19.80
2022-10-23T16:01:29.829Z,19.70
2022-10-23T16:04:20.933Z,19.70
2022-10-23T16:07:10.287Z,19.60
2022-10-23T16:10:00.342Z,19.60
2022-10-23T16:12:49.806Z,19.60
2022-10-23T16:15:39.647Z,19.60
2022-10-23T16:18:29.094Z,19.60
2022-10-23T16:21:22.833Z,19.60
2022-10-23T16:24:12.323Z,19.60
2022-10-23T16:27:01.801Z,19.50
2022-10-23T16:29:51.142Z,19.50
2022-10-23T16:32:40.682Z,19.40
2022-10-23T16:35:31.185Z,19.40
2022-10-23T16:38:30.955Z,19.40
2022-10-23T16:41:20.332Z,19.40
2022-10-23T16:44:22.370Z,19.30
2022-10-23T16:47:23.007Z,19.30
2022-10-23T16:50:12.432Z,19.30
2022-10-23T16:53:01.944Z,19.30
2022-10-23T16:55:52.638Z,19.30
2022-10-23T16:58:42.596Z,19.20
2022-10-23T17:01:34.072Z,19.20
2022-10-23T17:04:23.502Z,19.20
2022-10-23T17:07:13.456Z,19.20
2022-10-23T17:10:02.923Z,19.10
2022-10-23T17:12:53.724Z,19.10
2022-10-23T17:15:43.162Z,19.10
2022-10-23T17:18:32.637Z,19.10
2022-10-23T17:21:23.837Z,19.00
2022-10-23T17:24:14.043Z,19.00
2022-10-23T17:27:03.483Z,19.00
2022-10-23T17:29:54.279Z,19.00
2022-10-23T17:32:43.747Z,19.00
2022-10-23T17:35:33.343Z,19.00
2022-10-23T17:38:22.732Z,18.90
2022-10-23T17:41:15.512Z,18.90
2022-10-23T17:44:05.471Z,18.90
2022-10-23T17:46:56.817Z,18.80
2022-10-23T17:49:46.254Z,18.80
2022-10-23T17:52:35.913Z,18.80
2022-10-23T17:55:25.386Z,18.70
2022-10-23T17:58:14.750Z,18.70
2022-10-23T18:01:07.456Z,18.70
2022-10-23T18:04:01.998Z,18.60
2022-10-23T18:06:54.445Z,18.60
2022-10-23T18:09:43.855Z,18.50
2022-10-23T18:12:33.715Z,18.50
2022-10-23T18:15:23.328Z,18.50
2022-10-23T18:18:12.698Z,18.40
2022-10-23T18:21:04.891Z,18.40
2022-10-23T18:23:54.708Z,18.40
2022-10-23T18:26:46.109Z,18.40
2022-10-23T18:29:35.541Z,18.30
2022-10-23T18:32:24.903Z,18.30
2022-10-23T18:35:14.224Z,18.30
2022-10-23T18:38:05.953Z,18.30
2022-10-23T18:40:56.755Z,18.30
2022-10-23T18:43:46.483Z,18.30
2022-10-23T18:46:36.842Z,18.30
2022-10-23T18:49:26.634Z,18.20
2022-10-23T18:52:15.971Z,18.20
2022-10-23T18:55:08.440Z,18.20
2022-10-23T18:57:58.155Z,18.20
2022-10-23T19:00:47.967Z,18.20
2022-10-23T19:03:37.354Z,18.20
2022-10-23T19:06:27.104Z,18.20
2022-10-23T19:09:16.918Z,18.10
2022-10-23T19:12:07.844Z,18.10
2022-10-23T19:14:57.295Z,18.10
2022-10-23T19:17:54.225Z,18.10
2022-10-23T19:20:45.295Z,18.10
2022-10-23T19:23:36.446Z,18.10
2022-10-23T19:26:25.887Z,18.10
2022-10-23T19:29:20.880Z,18.10
2022-10-23T19:32:10.761Z,18.20
2022-10-23T19:35:01.173Z,18.20
2022-10-23T19:37:50.726Z,18.20
2022-10-23T19:40:40.132Z,18.20
2022-10-23T19:43:29.498Z,18.20
2022-10-23T19:46:20.377Z,18.30
2022-10-23T19:49:09.896Z,18.30
2022-10-23T19:51:59.266Z,18.30
2022-10-23T19:54:48.689Z,18.30
2022-10-23T19:57:38.325Z,18.30
2022-10-23T20:00:28.162Z,18.40
2022-10-23T20:03:19.542Z,18.40
2022-10-23T20:06:14.308Z,18.40
2022-10-23T20:09:09.331Z,18.40
2022-10-23T20:12:00.505Z,18.40
2022-10-23T20:14:50.783Z,18.40
2022-10-23T20:17:40.138Z,18.50
2022-10-23T20:20:30.909Z,18.50
2022-10-23T20:23:20.288Z,18.50
2022-10-23T20:26:12.414Z,18.50
2022-10-23T20:29:01.799Z,18.60
2022-10-23T20:31:51.645Z,18.60
2022-10-23T20:34:41.057Z,18.60
2022-10-23T20:37:31.775Z,18.60
2022-10-23T20:40:21.122Z,18.60
2022-10-23T20:43:10.457Z,18.60
2022-10-23T20:46:04.398Z,18.70
2022-10-23T20:48:54.747Z,18.70
2022-10-23T20:51:46.337Z,18.70
2022-10-23T20:54:38.201Z,18.70
2022-10-23T20:57:27.581Z,18.70
2022-10-23T21:00:17.049Z,18.80
2022-10-23T21:03:06.357Z,18.80
2022-10-23T21:05:55.662Z,18.80
2022-10-23T21:08:45.460Z,18.80
2022-10-23T21:11:37.504Z,18.80
2022-10-23T21:14:27.293Z,18.80
2022-10-23T21:17:17.043Z,18.80
2022-10-23T21:20:07.762Z,18.80
2022-10-23T21:22:57.567Z,18.70
2022-10-23T21:28:50.879Z,18.50
2022-10-23T21:31:45.231Z,18.40
2022-10-23T21:34:34.639Z,18.40
2022-10-23T21:37:25.050Z,18.30
2022-10-23T21:40:14.546Z,18.20
2022-10-23T21:43:03.862Z,18.10
2022-10-23T21:45:58.128Z,18.00
2022-10-23T21:48:48.818Z,18.00
2022-10-23T21:51:39.152Z,17.90
2022-10-23T21:54:28.514Z,17.90
2022-10-23T21:57:17.848Z,17.90
2022-10-23T22:00:10.151Z,17.80
2022-10-23T22:03:20.834Z,17.80
2022-10-23T22:06:15.665Z,17.80
2022-10-23T22:09:07.283Z,17.80
2022-10-23T22:11:57.133Z,17.70
2022-10-23T22:14:46.640Z,17.70
2022-10-23T22:17:36.016Z,17.70
2022-10-23T22:20:26.672Z,17.70
2022-10-23T22:23:16.009Z,17.60
2022-10-23T22:26:07.923Z,17.60
2022-10-23T22:28:59.849Z,17.50
2022-10-23T22:31:50.120Z,17.50
2022-10-23T22:34:52.339Z,17.40
2022-10-23T22:37:43.920Z,17.40
2022-10-23T22:40:33.249Z,17.40
2022-10-23T22:43:22.613Z,17.30
2022-10-23T22:46:14.408Z,17.30
2022-10-23T22:51:57.943Z,17.20
2022-10-23T22:54:49.246Z,17.20
2022-10-23T22:57:38.607Z,17.20
2022-10-23T23:00:27.960Z,17.10
2022-10-23T23:03:17.602Z,17.10
2022-10-23T23:06:08.514Z,17.10
2022-10-23T23:08:57.953Z,17.10
2022-10-23T23:11:52.490Z,17.10
2022-10-23T23:14:43.716Z,17.10
2022-10-23T23:17:33.022Z,17.10
2022-10-23T23:20:22.328Z,17.00
2022-10-23T23:23:14.152Z,17.00
2022-10-23T23:26:09.160Z,17.00
2022-10-23T23:28:59.812Z,17.00
2022-10-23T23:31:49.101Z,17.00
2022-10-23T23:34:38.394Z,17.00
2022-10-23T23:37:28.469Z,17.00
2022-10-23T23:40:17.915Z,17.00
2022-10-23T23:43:07.445Z,17.00
2022-10-23T23:45:58.761Z,17.00
2022-10-23T23:48:49.561Z,17.00
2022-10-23T23:51:38.903Z,16.90
2022-10-23T23:54:28.346Z,17.00
2022-10-23T23:57:17.672Z,17.00
